Pioneer Knutsen — LMIK — position and weather

sailwx.info

Track history (hours):
 
Tides and Currents Weather Stations Pressure Air Temp Water Temp Dewpoint Dewpoint Depression Visibility Wind Speed Wind Dir Waves Ship Positions

Pioneer Knutsen

Last reported at 2016-Sep-29 23:33 UTC. Time now 2016-Sep-30 23:47 UTC.
Position N 62°47' E 006°35'.

Length 70 m; draft 3.6 m.

Type: Ship. MMSI: 259393000.

Date/timePositionNaut miles runAvg speedWind from/ knotsBaromVisibWave heightAir tempDewpointWater temp
2016-Sep-29 23:33N 62°47' E 006°35'19 9.7
2016-Sep-29 21:33N 63°01' E 007°04'9 8.9
2016-Sep-29 20:33N 63°04' E 007°23'9 8.6
2016-Sep-29 19:33N 63°08' E 007°39'4210.0
2016-Sep-29 15:20N 63°29' E 009°00'1311.5
2016-Sep-29 14:14N 63°35' E 009°25'711.0
2016-Sep-29 13:33N 63°42' E 009°30'21 3.9
2016-Sep-29 08:18N 64°02' E 009°47'2 0.0
2016-Sep-27 23:25N 64°00' E 009°47'10611.7
2016-Sep-27 14:20N 62°53' E 006°43'16 0.4
2016-Sep-25 21:28N 62°39' E 006°24'4411.2
2016-Sep-25 17:33N 63°08' E 007°37'1111.4
2016-Sep-25 16:33N 62°58' E 007°49'9 0.5
2016-Sep-25 00:32N 63°06' E 007°48'0 0.0
2016-Sep-24 22:33N 63°06' E 007°48'7 7.4
2016-Sep-24 21:33N 63°06' E 007°32'2611.4
2016-Sep-24 19:18N 62°53' E 006°43'16 0.4
2016-Sep-23 04:11N 62°39' E 006°24'710.9
2016-Sep-23 03:33N 62°45' E 006°32'1211.2
2016-Sep-23 02:31N 62°55' E 006°46'1010.6
2016-Sep-23 01:33N 63°01' E 007°04'1010.5
2016-Sep-23 00:33N 63°05' E 007°26'1111.2
2016-Sep-22 23:33N 63°11' E 007°46'3711.1
2016-Sep-22 20:12N 63°29' E 008°60'32 0.8
2016-Sep-21 03:33N 63°54' E 009°46'1110.9
2016-Sep-21 02:33N 63°45' E 009°32'  
Track history (hours):
 
Tides and Currents Weather Stations Pressure Air Temp Water Temp Dewpoint Dewpoint Depression Visibility Wind Speed Wind Dir Waves Ship Positions

Pioneer Knutsen

Last reported at 2016-Sep-29 23:33 UTC. Time now 2016-Sep-30 23:47 UTC.
Position N 62°47' E 006°35'.

Length 70 m; draft 3.6 m.

Type: Ship. MMSI: 259393000.

Date/timePositionNaut miles runAvg speedWind from/ knotsBaromVisibWave heightAir tempDewpointWater temp
2016-Sep-29 23:33N 62°47' E 006°35'19 9.7
2016-Sep-29 21:33N 63°01' E 007°04'9 8.9
2016-Sep-29 20:33N 63°04' E 007°23'9 8.6
2016-Sep-29 19:33N 63°08' E 007°39'4210.0
2016-Sep-29 15:20N 63°29' E 009°00'1311.5
2016-Sep-29 14:14N 63°35' E 009°25'711.0
2016-Sep-29 13:33N 63°42' E 009°30'21 3.9
2016-Sep-29 08:18N 64°02' E 009°47'2 0.0
2016-Sep-27 23:25N 64°00' E 009°47'10611.7
2016-Sep-27 14:20N 62°53' E 006°43'16 0.4
2016-Sep-25 21:28N 62°39' E 006°24'4411.2
2016-Sep-25 17:33N 63°08' E 007°37'1111.4
2016-Sep-25 16:33N 62°58' E 007°49'9 0.5
2016-Sep-25 00:32N 63°06' E 007°48'0 0.0
2016-Sep-24 22:33N 63°06' E 007°48'7 7.4
2016-Sep-24 21:33N 63°06' E 007°32'2611.4
2016-Sep-24 19:18N 62°53' E 006°43'16 0.4
2016-Sep-23 04:11N 62°39' E 006°24'710.9
2016-Sep-23 03:33N 62°45' E 006°32'1211.2
2016-Sep-23 02:31N 62°55' E 006°46'1010.6
2016-Sep-23 01:33N 63°01' E 007°04'1010.5
2016-Sep-23 00:33N 63°05' E 007°26'1111.2
2016-Sep-22 23:33N 63°11' E 007°46'3711.1
2016-Sep-22 20:12N 63°29' E 008°60'32 0.8
2016-Sep-21 03:33N 63°54' E 009°46'1110.9
2016-Sep-21 02:33N 63°45' E 009°32'  

Dump ship's entire track history